Time;durP1;ratioP1;P1;durP2;ratioP2;P2;SDS_P1;SDS_P2;PMS_P1;PMS_P2;Temp;Humidity;BMP_temperature;BMP_pressure;BME280_temperature;BME280_humidity;BME280_pressure;Samples;Min_cycle;Max_cycle;Signal;HPM_P1;HPM_P2
2022/07/12 18:26:36;;;;;;;3.92;1.02;;;;;;;18.40;58.73;99700.21;1882013;75;22723;-67
2022/07/12 18:29:03;;;;;;;3.30;1.10;;;;;;;18.28;58.97;99697.20;1851543;77;20974;-67
2022/07/12 18:31:30;;;;;;;4.22;1.25;;;;;;;18.22;59.16;99689.77;1851834;76;21028;-67
2022/07/12 18:33:56;;;;;;;2.90;1.25;;;;;;;18.15;59.56;99688.56;1849352;77;20962;-68
2022/07/12 18:36:23;;;;;;;4.00;1.10;;;;;;;18.14;59.60;99689.54;1847913;75;20968;-67
2022/07/12 18:38:50;;;;;;;3.72;1.27;;;;;;;18.21;60.08;99688.11;1849694;76;26600;-67
2022/07/12 18:41:17;;;;;;;2.33;1.00;;;;;;;18.08;59.97;99686.42;1853373;77;21025;-66
2022/07/12 18:43:44;;;;;;;2.92;1.10;;;;;;;17.97;60.14;99696.98;1852659;75;21090;-67
2022/07/12 18:46:12;;;;;;;3.42;1.60;;;;;;;17.84;60.32;99701.54;1850439;75;21152;-67
2022/07/12 18:48:39;;;;;;;4.47;1.32;;;;;;;17.74;60.85;99689.52;1850697;77;20921;-67
2022/07/12 18:51:06;;;;;;;6.22;1.77;;;;;;;17.64;61.33;99694.67;1856521;77;21280;-68
2022/07/12 18:53:32;;;;;;;2.55;1.02;;;;;;;17.56;61.42;99698.38;1851184;77;20985;-67
2022/07/12 18:55:59;;;;;;;4.65;1.20;;;;;;;17.48;61.83;99695.48;1852805;75;21048;-68
2022/07/12 18:58:26;;;;;;;3.05;1.30;;;;;;;17.41;62.05;99687.66;1856476;77;21600;-66
2022/07/12 19:00:56;;;;;;;3.67;1.20;;;;;;;17.35;62.25;99697.38;1854864;77;20968;-67
2022/07/12 19:03:29;;;;;;;2.77;1.00;;;;;;;17.29;62.50;99701.80;1855414;75;20954;-68
2022/07/12 19:05:55;;;;;;;3.80;1.30;;;;;;;17.26;63.04;99711.27;1853166;77;21617;-67
2022/07/12 19:08:22;;;;;;;6.33;1.45;;;;;;;17.23;62.74;99713.17;1840089;77;21497;-67
2022/07/12 19:10:48;;;;;;;6.85;1.50;;;;;;;17.19;63.52;99709.06;1845999;76;20915;-67
2022/07/12 19:13:15;;;;;;;3.47;0.95;;;;;;;17.14;63.16;99709.91;1856960;76;21547;-67
2022/07/12 19:15:41;;;;;;;3.33;1.37;;;;;;;17.11;65.92;99711.46;1851574;75;21042;-67
2022/07/12 19:18:08;;;;;;;5.65;1.42;;;;;;;17.05;64.74;99715.02;1844669;76;21008;-66
2022/07/12 19:20:35;;;;;;;3.10;1.30;;;;;;;16.99;66.03;99712.35;1848904;76;21238;-66
2022/07/12 19:23:01;;;;;;;3.75;1.35;;;;;;;16.95;64.38;99706.95;1849628;76;21127;-67
2022/07/12 19:25:28;;;;;;;2.27;1.60;;;;;;;16.87;64.28;99708.00;1807885;78;20934;-67
2022/07/12 19:27:55;;;;;;;3.62;1.62;;;;;;;16.82;64.91;99710.13;1786373;79;21050;-67
2022/07/12 19:30:21;;;;;;;2.45;1.32;;;;;;;16.77;65.09;99706.02;1783786;78;20998;-66
2022/07/12 19:32:48;;;;;;;3.85;1.60;;;;;;;16.73;68.70;99703.22;1814770;78;21086;-67
2022/07/12 19:35:15;;;;;;;4.10;1.35;;;;;;;16.68;65.98;99700.07;1785719;78;20962;-66
2022/07/12 19:37:42;;;;;;;3.27;1.45;;;;;;;16.62;66.13;99697.89;1780715;80;21020;-67
2022/07/12 19:40:10;;;;;;;3.65;1.50;;;;;;;16.57;65.82;99705.28;1799753;78;29155;-66
2022/07/12 19:42:37;;;;;;;2.70;1.37;;;;;;;16.53;66.49;99699.88;1799096;78;20931;-66
2022/07/12 19:45:04;;;;;;;5.00;1.62;;;;;;;16.50;66.52;99700.94;1790194;78;22284;-67
2022/07/12 19:47:31;;;;;;;3.80;1.80;;;;;;;16.46;66.63;99701.27;1765168;79;20938;-67
2022/07/12 19:49:58;;;;;;;5.42;1.77;;;;;;;16.43;67.31;99696.22;1796470;78;21508;-66
2022/07/12 19:52:24;;;;;;;5.80;1.83;;;;;;;16.39;67.74;99694.28;1794410;78;21033;-66
2022/07/12 19:54:51;;;;;;;4.15;2.10;;;;;;;16.38;68.42;99691.27;1795428;78;20926;-66
2022/07/12 19:57:18;;;;;;;4.28;2.05;;;;;;;16.34;68.34;99688.02;1800813;78;21001;-66
2022/07/12 19:59:48;;;;;;;4.17;2.00;;;;;;;16.33;69.10;99692.93;1801704;77;21040;-66
2022/07/12 20:02:14;;;;;;;3.40;2.02;;;;;;;16.30;68.87;99686.56;1788756;79;20998;-66
2022/07/12 20:04:41;;;;;;;4.87;2.17;;;;;;;16.28;69.30;99688.46;1806718;77;21115;-67
2022/07/12 20:07:08;;;;;;;5.17;1.85;;;;;;;16.25;69.23;99688.69;1766053;80;26535;-66
2022/07/12 20:09:35;;;;;;;2.72;1.70;;;;;;;16.24;69.98;99684.34;1798633;78;22434;-66
2022/07/12 20:12:02;;;;;;;4.53;2.37;;;;;;;16.22;69.84;99678.37;1788380;78;20998;-67
2022/07/12 20:14:28;;;;;;;3.75;1.70;;;;;;;16.20;69.68;99682.89;1795950;78;21310;-66
2022/07/12 20:16:55;;;;;;;4.80;2.13;;;;;;;16.16;69.92;99681.44;1796096;78;22131;-66
2022/07/12 20:19:26;;;;;;;7.07;1.87;;;;;;;16.13;69.83;99686.90;1791770;78;21209;-66
2022/07/12 20:21:50;;;;;;;8.10;2.70;;;;;;;16.08;70.10;99679.83;1790154;78;22303;-67
2022/07/12 20:24:17;;;;;;;4.30;2.08;;;;;;;16.07;70.50;99674.17;1796983;78;21041;-67
2022/07/12 20:26:43;;;;;;;4.30;1.90;;;;;;;16.06;70.70;99681.72;1796906;79;20943;-66
2022/07/12 20:29:10;;;;;;;7.00;1.87;;;;;;;16.02;70.76;99680.23;1791777;78;21462;-67
2022/07/12 20:31:37;;;;;;;4.67;2.05;;;;;;;16.01;71.33;99678.56;1793298;78;20926;-67
2022/07/12 20:36:48;;;;;;;7.00;2.37;;;;;;;15.93;71.21;99674.30;1797778;78;21000;-67
2022/07/12 20:39:17;;;;;;;4.13;2.27;;;;;;;15.88;71.32;99672.02;1788406;77;21009;-67
2022/07/12 20:41:43;;;;;;;3.75;1.98;;;;;;;15.86;71.38;99672.59;1783113;78;21137;-66
2022/07/12 20:44:11;;;;;;;5.25;2.00;;;;;;;15.82;71.65;99678.55;1755019;79;21561;-66
2022/07/12 20:46:37;;;;;;;;;;;;;;;15.78;71.72;99678.86;1808561;77;21645;-66
2022/07/12 20:49:04;;;;;;;4.72;2.02;;;;;;;15.73;72.05;99675.70;1776799;78;20232;-66
2022/07/12 20:51:30;;;;;;;4.87;1.90;;;;;;;15.70;72.05;99675.44;1811608;78;21428;-66
2022/07/12 20:53:57;;;;;;;7.50;2.10;;;;;;;15.64;72.21;99674.52;1815213;78;20977;-67
2022/07/12 20:56:24;;;;;;;3.92;2.50;;;;;;;15.59;72.71;99668.72;1805861;77;20950;-67
2022/07/12 20:58:50;;;;;;;6.17;2.87;;;;;;;15.54;72.69;99669.50;1784711;79;21780;-67
2022/07/12 21:01:17;;;;;;;5.03;2.40;;;;;;;15.50;72.72;99666.25;1788484;78;21030;-66
2022/07/12 21:03:44;;;;;;;4.73;2.20;;;;;;;15.48;72.91;99662.04;1788653;78;20931;-66
2022/07/12 21:06:11;;;;;;;4.63;2.30;;;;;;;15.45;73.21;99665.23;1815609;78;21581;-67
2022/07/12 21:08:39;;;;;;;5.67;2.58;;;;;;;15.42;73.47;99663.30;1816760;78;20930;-66
2022/07/12 21:11:06;;;;;;;3.95;2.22;;;;;;;15.41;73.77;99665.09;1777292;80;21158;-67
2022/07/12 21:13:33;;;;;;;6.17;2.60;;;;;;;15.41;73.73;99659.83;1797924;78;21006;-67
2022/07/12 21:15:59;;;;;;;4.75;2.30;;;;;;;15.32;73.83;99640.73;1796461;78;21410;-67
2022/07/12 21:18:26;;;;;;;6.67;3.02;;;;;;;15.39;73.95;99660.41;1797010;78;21013;-67
2022/07/12 21:20:53;;;;;;;7.62;2.35;;;;;;;15.38;74.22;99658.73;1790181;78;21014;-67
2022/07/12 21:23:20;;;;;;;4.17;2.03;;;;;;;15.38;74.39;99653.47;1798547;78;22261;-67
2022/07/12 21:25:46;;;;;;;7.70;3.58;;;;;;;15.37;74.87;99657.02;1796929;78;20904;-67
2022/07/12 21:28:15;;;;;;;4.42;1.87;;;;;;;15.35;74.73;99651.05;1797901;78;20979;-67
2022/07/12 21:30:44;;;;;;;4.80;2.00;;;;;;;15.37;75.18;99646.98;1797147;78;20957;-67
2022/07/12 21:33:11;;;;;;;4.22;1.90;;;;;;;15.36;75.16;99646.14;1776549;78;20980;-67
2022/07/12 21:35:38;;;;;;;;;;;;;;;15.36;75.13;99646.62;1795885;79;21408;-67
2022/07/12 21:38:04;;;;;;;4.13;2.23;;;;;;;15.35;75.56;99645.78;1798641;78;20452;-67
2022/07/12 21:40:31;;;;;;;4.77;2.37;;;;;;;15.31;75.32;99639.03;1774845;78;21306;-67
2022/07/12 21:42:57;;;;;;;4.07;2.40;;;;;;;15.32;76.08;99636.80;1816794;78;20965;-67
2022/07/12 21:45:24;;;;;;;3.13;2.20;;;;;;;15.32;76.21;99633.30;1799947;77;20984;-67
2022/07/12 21:47:55;;;;;;;4.72;2.05;;;;;;;15.32;76.27;99627.58;1783691;78;21866;-67
2022/07/12 21:50:20;;;;;;;4.37;2.08;;;;;;;15.34;76.19;99630.09;1813535;77;21088;-66
2022/07/12 21:52:46;;;;;;;4.58;2.15;;;;;;;15.34;76.44;99625.67;1814960;78;21003;-66
2022/07/12 21:55:13;;;;;;;5.53;2.08;;;;;;;15.39;77.00;99628.83;1818273;78;21037;-66
2022/07/12 21:57:40;;;;;;;4.63;1.97;;;;;;;15.41;77.06;99621.69;1817497;77;20985;-66
2022/07/12 22:00:08;;;;;;;2.57;2.03;;;;;;;15.41;77.06;99621.69;1814458;78;21324;-66
2022/07/12 22:02:35;;;;;;;4.92;2.20;;;;;;;15.43;76.89;99621.56;1817403;78;21730;-66
2022/07/12 22:05:02;;;;;;;3.17;1.60;;;;;;;15.42;77.13;99615.46;1813057;78;20994;-66
2022/07/12 22:07:29;;;;;;;2.02;1.57;;;;;;;15.47;77.50;99609.06;1816676;78;21053;-66
2022/07/12 22:09:56;;;;;;;3.87;1.72;;;;;;;15.51;77.56;99612.66;1812874;77;20916;-67
2022/07/12 22:12:22;;;;;;;2.98;1.60;;;;;;;15.52;77.33;99612.22;1816646;78;21768;-66
2022/07/12 22:14:49;;;;;;;3.97;1.50;;;;;;;15.53;77.68;99614.72;1816574;78;21071;-66
2022/07/12 22:17:16;;;;;;;4.07;1.90;;;;;;;15.53;77.74;99613.89;1816701;77;21045;-66
2022/07/12 22:19:42;;;;;;;4.03;2.10;;;;;;;15.53;78.33;99611.26;1810267;78;21020;-66
2022/07/12 22:22:09;;;;;;;3.05;1.72;;;;;;;15.51;77.81;99606.56;1814960;78;21010;-67
2022/07/12 22:24:36;;;;;;;5.37;2.05;;;;;;;15.50;78.04;99606.20;1816423;78;21269;-66
2022/07/12 22:27:03;;;;;;;1.70;1.60;;;;;;;15.49;78.08;99604.51;1816881;78;21146;-66
2022/07/12 22:29:29;;;;;;;;;;;;;;;15.45;78.17;99598.14;1816339;78;21001;-67
2022/07/12 22:31:56;;;;;;;7.43;2.23;;;;;;;15.45;78.81;99600.77;1817247;77;20153;-66
2022/07/12 22:34:23;;;;;;;4.33;1.82;;;;;;;15.45;78.74;99602.09;1807527;78;21668;-66
2022/07/12 22:36:50;;;;;;;3.72;2.08;;;;;;;15.45;78.85;99594.20;1817665;78;21602;-66
2022/07/12 22:39:17;;;;;;;1.82;1.42;;;;;;;15.48;79.00;99597.58;1813264;78;21120;-67
2022/07/12 22:41:44;;;;;;;2.33;1.42;;;;;;;15.47;79.19;99595.90;1813253;78;20914;-66
2022/07/12 22:44:10;;;;;;;2.43;1.40;;;;;;;15.45;78.93;99586.30;1798650;77;21028;-66
2022/07/12 22:46:37;;;;;;;2.00;1.17;;;;;;;15.44;79.37;99585.95;1790369;78;21069;-66
2022/07/12 22:49:04;;;;;;;2.37;1.30;;;;;;;15.44;79.47;99586.43;1814028;78;21806;-66
2022/07/12 22:51:49;;;;;;;5.63;1.97;;;;;;;15.43;79.57;99582.96;1818196;78;20950;-66
2022/07/12 22:54:17;;;;;;;2.42;1.10;;;;;;;15.44;79.79;99582.00;1822028;78;20978;-67
2022/07/12 22:56:44;;;;;;;3.40;1.37;;;;;;;15.42;79.65;99581.26;1813346;77;20979;-67
2022/07/12 22:59:11;;;;;;;;;;;;;;;15.42;79.73;99583.05;1820571;78;21583;-67
2022/07/12 23:01:38;;;;;;;4.47;1.45;;;;;;;15.42;81.30;99591.78;1821015;78;24404;-67
2022/07/12 23:04:06;;;;;;;5.17;1.30;;;;;;;15.41;79.99;99581.38;1810052;78;20975;-67
2022/07/12 23:06:34;;;;;;;6.95;1.42;;;;;;;15.39;80.07;99578.84;1816798;77;21083;-67
2022/07/12 23:09:01;;;;;;;4.50;1.40;;;;;;;15.40;80.36;99580.55;1809803;78;21240;-67
2022/07/12 23:11:27;;;;;;;2.95;1.50;;;;;;;15.39;80.29;99576.22;1807920;77;20965;-67
2022/07/12 23:13:54;;;;;;;4.75;1.10;;;;;;;15.34;80.64;99575.69;1783497;80;22333;-67
2022/07/12 23:16:21;;;;;;;6.63;2.03;;;;;;;15.36;80.90;99573.80;1820673;78;20953;-67
2022/07/12 23:18:47;;;;;;;5.15;1.70;;;;;;;15.34;80.59;99569.59;1819378;78;21981;-67
2022/07/12 23:21:14;;;;;;;3.27;1.30;;;;;;;15.34;80.69;99571.73;1818506;78;21016;-67
2022/07/12 23:23:41;;;;;;;2.10;1.02;;;;;;;15.22;80.61;99556.34;1772002;79;21040;-67
2022/07/12 23:26:08;;;;;;;2.20;0.82;;;;;;;15.33;80.43;99573.18;1805566;78;21602;-67
2022/07/12 23:28:35;;;;;;;1.87;1.10;;;;;;;15.31;80.62;99570.64;1803567;78;21056;-67
2022/07/12 23:31:03;;;;;;;4.62;1.20;;;;;;;15.30;80.70;99568.97;1802440;79;20898;-67
2022/07/12 23:33:30;;;;;;;2.40;1.40;;;;;;;15.31;80.85;99565.38;1800367;78;21002;-67
2022/07/12 23:35:56;;;;;;;3.83;1.10;;;;;;;15.31;81.27;99568.01;1802300;78;21523;-67
2022/07/12 23:38:23;;;;;;;3.80;1.40;;;;;;;15.31;80.72;99575.90;1803563;78;21370;-67
2022/07/12 23:40:50;;;;;;;3.58;1.50;;;;;;;15.32;80.90;99572.34;1795754;78;21585;-67
2022/07/12 23:43:16;;;;;;;2.52;1.12;;;;;;;15.30;80.95;99571.59;1800965;78;20919;-67
2022/07/12 23:45:43;;;;;;;3.70;1.00;;;;;;;15.29;81.08;99575.19;1817012;77;21017;-67
2022/07/12 23:48:10;;;;;;;5.57;1.37;;;;;;;15.28;80.93;99578.75;1773466;80;21275;-67
2022/07/12 23:50:37;;;;;;;3.30;0.90;;;;;;;15.25;80.97;99576.33;1806408;78;21441;-67
2022/07/12 23:53:03;;;;;;;4.83;1.07;;;;;;;15.25;81.21;99576.33;1805831;78;21008;-66
2022/07/12 23:55:30;;;;;;;1.83;1.00;;;;;;;15.22;81.19;99572.59;1775309;79;21648;-67
2022/07/12 23:57:58;;;;;;;6.65;2.42;;;;;;;15.19;81.26;99574.13;1795833;79;20983;-66
